Adventure of The Seas — C6SA3 — position and weather

sailwx.info

Track history (hours):
 
Tides and Currents Weather Stations Pressure Air Temp Water Temp Dewpoint Dewpoint Depression Visibility Wind Speed Wind Dir Waves Ship Positions

Adventure of The Seas

Operator: Royal Caribbean Cruises Ltd

Last reported at 2015-Jun-28 22:28 UTC. Time now 2015-Jul-04 06:56 UTC.
Position N 18°11' W 064°46'.

Type: Passenger vessel. MMSI: 311263000.

Date/timePositionNaut miles runAvg speedWind from/ knotsBaromVisibWave heightAir tempDewpointWater temp
2015-Jun-28 22:28N 18°11' W 064°46'10 0.2
2015-Jun-27 03:05N 18°11' W 064°56'27814.1
2015-Jun-26 07:20N 14°48' W 061°38'1113.9
2015-Jun-26 06:33N 14°39' W 061°31'1515.4
2015-Jun-26 05:33N 14°31' W 061°18'1514.9
2015-Jun-26 04:33N 14°22' W 061°05'1514.8
2015-Jun-26 03:33N 14°13' W 060°53'25 0.9
2015-Jun-24 22:23N 13°53' W 061°08'7 8.6
2015-Jun-24 21:33N 13°59' W 061°04'5 4.1
2015-Jun-24 20:26N 14°01' W 060°60'0 0.0
2015-Jun-24 19:32N 14°01' W 060°60'0 0.0
2015-Jun-24 18:32N 14°01' W 060°60'0 0.0
2015-Jun-24 17:32N 14°01' W 060°60'0 0.0
2015-Jun-24 16:32N 14°01' W 060°60'0 0.0
2015-Jun-24 15:32N 14°01' W 060°60'0 0.0
2015-Jun-24 14:20N 14°01' W 060°60'0 0.0
2015-Jun-24 13:32N 14°01' W 060°60'0 0.0
2015-Jun-24 12:20N 14°01' W 060°60'0 0.2
2015-Jun-24 11:33N 14°01' W 060°60'10 9.5
2015-Jun-24 10:33N 14°08' W 061°06'1514.5
2015-Jun-24 09:33N 14°21' W 061°14'1414.3
2015-Jun-24 08:33N 14°33' W 061°21'1414.4
2015-Jun-24 07:33N 14°45' W 061°29'9317.1
2015-Jun-24 02:08N 16°15' W 061°56'1017.7
2015-Jun-24 01:33N 16°25' W 061°56'1515.3
2015-Jun-24 00:33N 16°40' W 061°59'1514.8
2015-Jun-23 23:33N 16°54' W 062°00'1514.6
2015-Jun-23 22:33N 17°09' W 061°59'8 7.9
2015-Jun-23 21:33N 17°07' W 061°51'0 0.0
2015-Jun-23 20:33N 17°07' W 061°51'0 0.0
2015-Jun-23 19:33N 17°07' W 061°51'0 0.0
2015-Jun-23 19:03N 17°07' W 061°51'81 1.9
2015-Jun-22 00:26N 17°43' W 063°07'7 7.9
2015-Jun-21 23:32N 17°50' W 063°07'8 7.9
2015-Jun-21 22:33N 17°57' W 063°06'4 0.4
2015-Jun-21 12:32N 18°01' W 063°03'10 9.8
2015-Jun-21 11:33N 18°01' W 063°13'1514.8
2015-Jun-21 10:33N 18°03' W 063°28'7417.2
2015-Jun-21 06:17N 18°11' W 064°45'5 0.2
2015-Jun-20 02:33N 18°08' W 064°50'27714.6
2015-Jun-19 07:33N 14°43' W 061°36'1716.6
2015-Jun-19 06:33N 14°34' W 061°22'1616.2
2015-Jun-19 05:32N 14°24' W 061°08'1515.6
2015-Jun-19 04:34N 14°15' W 060°56'  
Track history (hours):
 
Tides and Currents Weather Stations Pressure Air Temp Water Temp Dewpoint Dewpoint Depression Visibility Wind Speed Wind Dir Waves Ship Positions

Adventure of The Seas

Operator: Royal Caribbean Cruises Ltd

Last reported at 2015-Jun-28 22:28 UTC. Time now 2015-Jul-04 06:56 UTC.
Position N 18°11' W 064°46'.

Type: Passenger vessel. MMSI: 311263000.

Date/timePositionNaut miles runAvg speedWind from/ knotsBaromVisibWave heightAir tempDewpointWater temp
2015-Jun-28 22:28N 18°11' W 064°46'10 0.2
2015-Jun-27 03:05N 18°11' W 064°56'27814.1
2015-Jun-26 07:20N 14°48' W 061°38'1113.9
2015-Jun-26 06:33N 14°39' W 061°31'1515.4
2015-Jun-26 05:33N 14°31' W 061°18'1514.9
2015-Jun-26 04:33N 14°22' W 061°05'1514.8
2015-Jun-26 03:33N 14°13' W 060°53'25 0.9
2015-Jun-24 22:23N 13°53' W 061°08'7 8.6
2015-Jun-24 21:33N 13°59' W 061°04'5 4.1
2015-Jun-24 20:26N 14°01' W 060°60'0 0.0
2015-Jun-24 19:32N 14°01' W 060°60'0 0.0
2015-Jun-24 18:32N 14°01' W 060°60'0 0.0
2015-Jun-24 17:32N 14°01' W 060°60'0 0.0
2015-Jun-24 16:32N 14°01' W 060°60'0 0.0
2015-Jun-24 15:32N 14°01' W 060°60'0 0.0
2015-Jun-24 14:20N 14°01' W 060°60'0 0.0
2015-Jun-24 13:32N 14°01' W 060°60'0 0.0
2015-Jun-24 12:20N 14°01' W 060°60'0 0.2
2015-Jun-24 11:33N 14°01' W 060°60'10 9.5
2015-Jun-24 10:33N 14°08' W 061°06'1514.5
2015-Jun-24 09:33N 14°21' W 061°14'1414.3
2015-Jun-24 08:33N 14°33' W 061°21'1414.4
2015-Jun-24 07:33N 14°45' W 061°29'9317.1
2015-Jun-24 02:08N 16°15' W 061°56'1017.7
2015-Jun-24 01:33N 16°25' W 061°56'1515.3
2015-Jun-24 00:33N 16°40' W 061°59'1514.8
2015-Jun-23 23:33N 16°54' W 062°00'1514.6
2015-Jun-23 22:33N 17°09' W 061°59'8 7.9
2015-Jun-23 21:33N 17°07' W 061°51'0 0.0
2015-Jun-23 20:33N 17°07' W 061°51'0 0.0
2015-Jun-23 19:33N 17°07' W 061°51'0 0.0
2015-Jun-23 19:03N 17°07' W 061°51'81 1.9
2015-Jun-22 00:26N 17°43' W 063°07'7 7.9
2015-Jun-21 23:32N 17°50' W 063°07'8 7.9
2015-Jun-21 22:33N 17°57' W 063°06'4 0.4
2015-Jun-21 12:32N 18°01' W 063°03'10 9.8
2015-Jun-21 11:33N 18°01' W 063°13'1514.8
2015-Jun-21 10:33N 18°03' W 063°28'7417.2
2015-Jun-21 06:17N 18°11' W 064°45'5 0.2
2015-Jun-20 02:33N 18°08' W 064°50'27714.6
2015-Jun-19 07:33N 14°43' W 061°36'1716.6
2015-Jun-19 06:33N 14°34' W 061°22'1616.2
2015-Jun-19 05:32N 14°24' W 061°08'1515.6
2015-Jun-19 04:34N 14°15' W 060°56'  

Dump ship's entire track history